DK-0034 weather

Slagelse Private Airstrip
Zealand, Denmark

Public forecast

Using degrees Celsius for public forecast. Weather courtesy of forecast.io.

Closest aviation weather report (METAR) to Slagelse Private Airstrip

Report is more than 6 hours old.

Closest report is Avnø Air Base, 23.2 nm (43.0 km) SE. Retrieved 2016/10/04 04:20 UTC (4 years ago):

EKAV 040420Z AUTO ///// 9999NDV NCD ///// Q1039

Closest aviation forecast (TAF) to Slagelse Private Airstrip

Closest forecast is Copenhagen Kastrup Airport, 48.3 nm (89.5 km) ENE. Retrieved 2020/04/05 06:06 UTC (3 hours ago):

TAF EKCH 050458Z 0506/0606 20006KT 9999 FEW030 BECMG 0511/0514 14015KT